< < Back
Terminal Aerodrome Forecast


Current Version              Previous Versions:   1  2  3  4  5  6  7  8  9  

Terminal Aerodrome Forecast

701
FTUS42 KJAX 221700
TAFJAX
TAF
KJAX 221724Z 2218/2318 18008KT P6SM VCTS FEW005 OVC035CB
      TEMPO 2218/2219 2SM -TSRA BR
     FM222000 16007KT P6SM VCSH SCT007 OVC025
     FM230100 12005KT 4SM BR VCSH OVC015
     FM230500 15004KT 2SM BR OVC007
     FM230900 VRB03KT 1/2SM FG OVC002
     FM231500 20008KT 4SM BR OVC008=

Latest METAR

522
SAUS80 KWBC 221700
MTRJAX
METAR KJAX 221656Z 16007KT 10SM TS FEW004 BKN038CB OVC070 19/19 A2996
RMK AO2 TSB54 SLP147 OCNL LTGICCG VC SW TS VC SW MOV NE
T01940189


USA.gov is the U.S. government's official web portal to all federal, state and local government web resources and services.